Time;durP1;ratioP1;P1;durP2;ratioP2;P2;SDS_P1;SDS_P2;PMS_P1;PMS_P2;Temp;Humidity;BMP_temperature;BMP_pressure;BME280_temperature;BME280_humidity;BME280_pressure;Samples;Min_cycle;Max_cycle;Signal;HPM_P1;HPM_P2
2023/01/26 00:02:02;;;;;;;12.55;11.35;;;22.00;73.40;;;;;;6201289;28;89104;-73
2023/01/26 00:05:07;;;;;;;12.77;11.57;;;22.00;73.50;;;;;;6189602;28;89237;-72
2023/01/26 00:08:09;;;;;;;12.07;10.82;;;21.90;73.40;;;;;;6195825;28;89130;-73
2023/01/26 00:11:14;;;;;;;12.05;10.85;;;21.90;73.40;;;;;;6199881;28;89096;-73
2023/01/26 00:14:16;;;;;;;12.65;11.35;;;21.90;73.50;;;;;;6203280;28;88124;-73
2023/01/26 00:17:25;;;;;;;12.57;11.27;;;21.90;73.50;;;;;;6205327;28;88392;-73
2023/01/26 00:20:29;;;;;;;12.75;11.55;;;21.90;73.40;;;;;;6205881;28;89097;-74
2023/01/26 00:23:33;;;;;;;12.75;11.55;;;21.90;73.40;;;;;;6195314;28;89029;-73
2023/01/26 00:26:35;;;;;;;13.20;11.90;;;21.90;73.50;;;;;;6205211;28;90016;-73
2023/01/26 00:29:37;;;;;;;12.75;11.48;;;21.90;73.50;;;;;;6207829;28;89441;-72
2023/01/26 00:32:39;;;;;;;12.70;11.50;;;21.80;73.30;;;;;;6204659;28;89066;-71
2023/01/26 00:35:43;;;;;;;13.10;11.80;;;21.80;73.30;;;;;;6195135;28;89105;-73
2023/01/26 00:38:46;;;;;;;12.85;11.55;;;21.90;73.40;;;;;;6204545;28;87984;-72
2023/01/26 00:45:07;;;;;;;12.35;11.15;;;21.80;73.30;;;;;;6186621;28;93353;-73
2023/01/26 00:48:09;;;;;;;13.43;12.13;;;21.80;73.30;;;;;;6200776;28;93385;-73
2023/01/26 00:51:13;;;;;;;12.70;11.40;;;21.80;73.30;;;;;;6184196;28;94043;-74
2023/01/26 00:54:15;;;;;;;12.73;11.43;;;21.80;73.30;;;;;;6143243;28;1270043;-72
2023/01/26 00:57:17;;;;;;;13.02;11.73;;;21.80;73.30;;;;;;6184229;28;95031;-73
2023/01/26 01:00:19;;;;;;;12.15;10.95;;;21.70;73.20;;;;;;6187863;28;94129;-73
2023/01/26 01:03:21;;;;;;;13.82;12.38;;;21.70;73.20;;;;;;6187457;28;94174;-73
2023/01/26 01:06:25;;;;;;;12.85;11.55;;;21.80;73.30;;;;;;6183478;28;94313;-72
2023/01/26 01:09:27;;;;;;;12.52;11.23;;;21.70;73.20;;;;;;6182838;28;94238;-73
2023/01/26 01:12:29;;;;;;;12.30;11.00;;;21.80;73.30;;;;;;6201311;28;94202;-74
2023/01/26 01:15:31;;;;;;;12.02;10.82;;;21.70;73.20;;;;;;6195572;28;94187;-73
2023/01/26 01:18:33;;;;;;;12.07;10.88;;;21.70;73.20;;;;;;6196393;28;93369;-73
2023/01/26 01:21:37;;;;;;;11.82;10.73;;;21.70;73.20;;;;;;6194775;28;94459;-74
2023/01/26 01:24:39;;;;;;;11.98;10.80;;;21.70;73.20;;;;;;6198065;28;93021;-73
2023/01/26 01:27:41;;;;;;;12.00;10.80;;;21.70;73.20;;;;;;6192541;28;95092;-74
2023/01/26 01:30:43;;;;;;;11.65;10.55;;;21.60;73.20;;;;;;6202936;28;94080;-72
2023/01/26 01:33:45;;;;;;;12.02;10.82;;;21.60;73.20;;;;;;6192431;28;93066;-74
2023/01/26 01:36:48;;;;;;;11.57;10.48;;;21.60;73.20;;;;;;6189152;28;94127;-73
2023/01/26 01:39:50;;;;;;;11.50;10.40;;;21.60;73.20;;;;;;6196830;28;94145;-73
2023/01/26 01:42:52;;;;;;;11.88;10.73;;;21.60;73.20;;;;;;6194061;28;94145;-72
2023/01/26 01:45:55;;;;;;;12.10;10.90;;;21.60;73.10;;;;;;6187801;28;94115;-72
2023/01/26 01:48:59;;;;;;;12.40;11.18;;;21.60;73.20;;;;;;6194487;28;94435;-72
2023/01/26 01:52:10;;;;;;;11.20;10.10;;;21.60;73.10;;;;;;6194029;28;94132;-73
2023/01/26 01:55:14;;;;;;;11.10;10.05;;;21.60;73.20;;;;;;6201754;28;94138;-73
2023/01/26 01:58:16;;;;;;;12.02;10.82;;;21.60;73.10;;;;;;6195543;28;95302;-74
2023/01/26 02:01:19;;;;;;;11.63;10.45;;;21.60;73.10;;;;;;6194171;28;94157;-73
2023/01/26 02:04:22;;;;;;;10.82;9.80;;;21.60;73.00;;;;;;6196003;28;93254;-73
2023/01/26 02:07:26;;;;;;;10.75;9.65;;;21.50;72.40;;;;;;6201830;28;94360;-73
2023/01/26 02:10:30;;;;;;;10.90;9.80;;;21.50;70.80;;;;;;6200253;28;94057;-73
2023/01/26 02:13:33;;;;;;;10.88;9.77;;;21.50;70.70;;;;;;6199714;28;94219;-73
2023/01/26 02:16:38;;;;;;;10.13;9.13;;;21.50;71.50;;;;;;6198990;28;94159;-72
2023/01/26 02:19:50;;;;;;;10.30;9.30;;;21.50;71.80;;;;;;6201890;28;93334;-73
2023/01/26 02:23:00;;;;;;;10.73;9.65;;;21.50;71.90;;;;;;6200715;28;94126;-73
2023/01/26 02:26:11;;;;;;;9.70;8.80;;;21.50;72.10;;;;;;6199103;28;94960;-73
2023/01/26 02:29:13;;;;;;;11.13;10.02;;;21.50;72.20;;;;;;6186783;28;95092;-72
2023/01/26 02:32:15;;;;;;;10.88;9.77;;;21.50;72.20;;;;;;6197261;28;94373;-73
2023/01/26 02:35:17;;;;;;;9.65;8.65;;;21.50;72.20;;;;;;6199372;28;94090;-73
2023/01/26 02:38:21;;;;;;;9.88;8.88;;;21.50;72.30;;;;;;6196199;28;94206;-73
2023/01/26 02:44:44;;;;;;;9.70;8.70;;;21.50;72.30;;;;;;6193548;28;94410;-74
2023/01/26 02:47:46;;;;;;;9.48;8.57;;;21.50;72.30;;;;;;6201651;28;94173;-72
2023/01/26 02:50:47;;;;;;;9.57;8.68;;;21.40;72.30;;;;;;6199738;28;93320;-72
2023/01/26 02:53:49;;;;;;;9.10;8.20;;;21.40;72.30;;;;;;6199975;28;94156;-73
2023/01/26 02:56:52;;;;;;;9.05;8.13;;;21.40;72.40;;;;;;6200797;28;94451;-73
2023/01/26 02:59:54;;;;;;;9.38;8.48;;;21.40;72.30;;;;;;6200593;28;95462;-73
2023/01/26 03:02:59;;;;;;;9.10;8.20;;;21.40;72.40;;;;;;6202244;28;94095;-73
2023/01/26 03:06:01;;;;;;;8.88;8.07;;;21.40;72.40;;;;;;6202514;28;94138;-73
2023/01/26 03:09:03;;;;;;;8.63;7.82;;;21.40;72.40;;;;;;6200717;28;94181;-73
2023/01/26 03:12:07;;;;;;;8.85;8.05;;;21.40;72.50;;;;;;6198290;28;94126;-74
2023/01/26 03:28:31;;;;;;;8.43;7.63;;;21.30;72.40;;;;;;6200935;28;93934;-72
2023/01/26 03:31:33;;;;;;;8.20;7.40;;;21.30;72.40;;;;;;6193856;28;95168;-73
2023/01/26 03:34:35;;;;;;;8.43;7.63;;;21.30;72.50;;;;;;6189352;28;94191;-74
2023/01/26 03:37:42;;;;;;;8.18;7.38;;;21.30;72.50;;;;;;6196675;28;94426;-74
2023/01/26 03:57:23;;;;;;;8.40;7.60;;;21.30;72.50;;;;;;6205421;28;92627;-74
2023/01/26 04:00:26;;;;;;;7.88;7.10;;;21.20;72.50;;;;;;6198742;28;94422;-74
2023/01/26 04:10:09;;;;;;;8.35;7.22;;;21.20;72.60;;;;;;6205367;28;93204;-74
2023/01/26 04:23:18;;;;;;;7.47;6.78;;;21.20;72.60;;;;;;6188861;28;92321;-73
2023/01/26 04:26:20;;;;;;;7.53;6.82;;;21.20;72.60;;;;;;6194635;28;93878;-74
2023/01/26 04:29:22;;;;;;;6.97;6.28;;;21.20;72.50;;;;;;6196860;28;94343;-72
2023/01/26 04:32:26;;;;;;;7.22;6.53;;;21.20;72.50;;;;;;6194300;28;94142;-74
2023/01/26 04:35:28;;;;;;;7.40;6.70;;;21.20;72.40;;;;;;6189903;28;97325;-73
2023/01/26 04:38:30;;;;;;;6.40;5.80;;;21.20;72.40;;;;;;6199442;28;94207;-73
2023/01/26 04:41:33;;;;;;;7.07;6.32;;;21.20;72.40;;;;;;6201127;28;94380;-73
2023/01/26 04:44:35;;;;;;;7.05;6.45;;;21.20;72.40;;;;;;6199147;28;94832;-72
2023/01/26 04:47:38;;;;;;;6.63;6.03;;;21.20;72.40;;;;;;6203810;28;94532;-73
2023/01/26 04:50:40;;;;;;;6.70;6.10;;;21.30;72.40;;;;;;6202970;28;94141;-72
2023/01/26 04:53:42;;;;;;;6.60;5.97;;;21.30;72.30;;;;;;6203698;28;94090;-72
2023/01/26 04:56:44;;;;;;;6.50;5.90;;;21.30;72.20;;;;;;6189160;28;93467;-73
2023/01/26 04:59:47;;;;;;;6.20;5.60;;;21.30;72.20;;;;;;6191006;28;94148;-73
2023/01/26 05:02:50;;;;;;;6.40;5.80;;;21.30;72.20;;;;;;6201217;28;94243;-73
2023/01/26 05:05:54;;;;;;;6.40;5.50;;;21.30;72.20;;;;;;6189000;28;95102;-72
2023/01/26 05:08:56;;;;;;;6.03;5.43;;;21.40;72.20;;;;;;6203866;28;95086;-73
2023/01/26 05:12:32;;;;;;;6.40;5.80;;;21.40;72.20;;;;;;6186432;28;95481;-74
2023/01/26 05:15:20;;;;;;;6.57;5.70;;;21.40;72.30;;;;;;6195039;28;93831;-73
2023/01/26 05:18:24;;;;;;;6.25;5.65;;;21.40;72.10;;;;;;6203926;28;94177;-72
2023/01/26 05:21:27;;;;;;;5.90;5.30;;;21.40;72.00;;;;;;6200677;28;94188;-73
2023/01/26 05:24:29;;;;;;;6.05;5.45;;;21.40;72.00;;;;;;6201911;28;94191;-73
2023/01/26 05:27:31;;;;;;;5.80;5.30;;;21.50;72.00;;;;;;6204139;28;93560;-74
2023/01/26 05:30:33;;;;;;;5.85;5.28;;;21.50;72.00;;;;;;6201915;28;94215;-72
2023/01/26 05:33:36;;;;;;;5.82;5.30;;;21.50;72.00;;;;;;6203005;28;94328;-73
2023/01/26 05:36:38;;;;;;;5.40;4.90;;;21.50;71.90;;;;;;6197340;28;95084;-73
2023/01/26 05:39:40;;;;;;;5.70;5.20;;;21.60;71.90;;;;;;6197189;28;94158;-73
2023/01/26 05:42:43;;;;;;;5.40;4.90;;;21.50;71.80;;;;;;6187538;28;94396;-73
2023/01/26 05:45:45;;;;;;;5.90;5.30;;;21.60;71.80;;;;;;6197713;28;94150;-74
2023/01/26 05:48:48;;;;;;;5.70;5.20;;;21.60;71.80;;;;;;6199937;28;94481;-73
2023/01/26 05:51:50;;;;;;;5.30;4.80;;;21.60;71.70;;;;;;6195753;28;93073;-73
2023/01/26 05:54:52;;;;;;;5.40;4.90;;;21.60;71.70;;;;;;6186446;28;93965;-74
2023/01/26 05:57:54;;;;;;;8.25;5.10;;;21.70;71.70;;;;;;6192549;28;93410;-74
2023/01/26 06:00:56;;;;;;;10.82;5.05;;;21.60;70.50;;;;;;6192645;28;94188;-73
2023/01/26 06:04:00;;;;;;;8.07;5.10;;;21.70;69.30;;;;;;6198403;28;94327;-74
2023/01/26 06:07:02;;;;;;;4.93;4.43;;;21.70;69.40;;;;;;6194125;28;94958;-73
2023/01/26 06:10:05;;;;;;;6.30;4.45;;;21.70;70.10;;;;;;6200568;28;93870;-74
2023/01/26 06:13:07;;;;;;;6.68;4.90;;;21.80;70.80;;;;;;6202852;28;94446;-74
2023/01/26 06:16:09;;;;;;;5.72;4.47;;;21.80;71.00;;;;;;6202555;28;94193;-73
2023/01/26 06:19:12;;;;;;;4.68;4.28;;;21.80;71.60;;;;;;6202778;28;94135;-72
2023/01/26 06:22:15;;;;;;;4.82;4.32;;;21.90;71.40;;;;;;6201138;28;94355;-76
2023/01/26 06:25:17;;;;;;;6.82;4.53;;;21.80;71.50;;;;;;6188679;28;94437;-75
2023/01/26 06:28:19;;;;;;;4.47;4.07;;;21.90;71.50;;;;;;6193578;28;93344;-75
2023/01/26 06:31:22;;;;;;;4.70;4.28;;;21.90;71.50;;;;;;6191153;28;94126;-75
2023/01/26 06:34:26;;;;;;;4.88;4.38;;;21.90;71.50;;;;;;6189971;28;94124;-75
2023/01/26 06:37:28;;;;;;;4.57;4.18;;;21.90;71.50;;;;;;6187666;28;95060;-73
2023/01/26 06:40:30;;;;;;;5.10;4.13;;;22.00;71.60;;;;;;6203726;28;94174;-74
2023/01/26 06:43:33;;;;;;;4.80;4.25;;;21.90;71.40;;;;;;6197377;28;94708;-73
2023/01/26 06:46:35;;;;;;;4.57;4.18;;;22.00;71.40;;;;;;6202823;28;94337;-74
2023/01/26 06:49:39;;;;;;;4.60;4.07;;;22.00;71.30;;;;;;6195002;28;94056;-73
2023/01/26 06:52:43;;;;;;;4.68;4.18;;;22.00;71.30;;;;;;6202121;28;94076;-74
2023/01/26 06:55:45;;;;;;;5.03;4.15;;;22.00;71.30;;;;;;6197038;28;94072;-72
2023/01/26 06:58:48;;;;;;;4.95;4.00;;;21.90;71.30;;;;;;6193394;28;93312;-73
2023/01/26 07:01:50;;;;;;;4.72;4.25;;;21.90;71.30;;;;;;6193671;28;94301;-73
2023/01/26 07:04:53;;;;;;;4.07;3.75;;;21.90;71.30;;;;;;6201999;28;94189;-74
2023/01/26 07:07:55;;;;;;;4.57;4.07;;;21.90;71.40;;;;;;6196712;28;95083;-74
2023/01/26 07:10:57;;;;;;;4.40;4.00;;;22.00;71.40;;;;;;6200899;28;94503;-74
2023/01/26 07:14:00;;;;;;;4.30;3.90;;;22.00;71.40;;;;;;6200464;28;93986;-72
2023/01/26 07:17:03;;;;;;;4.35;3.83;;;22.00;71.40;;;;;;6190527;28;94040;-73
2023/01/26 07:20:07;;;;;;;4.63;3.60;;;22.00;71.20;;;;;;6192976;28;94260;-74
2023/01/26 07:23:10;;;;;;;4.70;3.67;;;22.00;71.00;;;;;;6201782;28;94097;-74
2023/01/26 07:26:12;;;;;;;4.00;3.60;;;22.00;71.50;;;;;;6198508;28;94122;-74
2023/01/26 07:29:14;;;;;;;4.13;3.72;;;22.00;71.40;;;;;;6190083;28;93337;-73
2023/01/26 07:32:16;;;;;;;4.22;3.83;;;22.00;71.50;;;;;;6188351;28;93056;-75
2023/01/26 07:35:19;;;;;;;5.60;3.50;;;22.00;71.70;;;;;;6201029;28;93962;-75
2023/01/26 07:38:22;;;;;;;5.28;3.75;;;22.00;71.90;;;;;;6201467;28;95124;-74
2023/01/26 07:41:24;;;;;;;4.13;3.60;;;22.10;72.20;;;;;;6189605;28;93043;-74
2023/01/26 07:44:26;;;;;;;3.92;3.42;;;22.00;72.30;;;;;;6195028;28;94104;-73
2023/01/26 07:47:28;;;;;;;3.90;3.60;;;22.10;72.50;;;;;;6186719;28;94062;-74
2023/01/26 07:50:31;;;;;;;4.38;3.97;;;22.10;72.50;;;;;;6181368;28;94322;-74
2023/01/26 07:53:38;;;;;;;4.00;3.60;;;22.00;72.60;;;;;;6194252;28;94153;-73
2023/01/26 07:56:40;;;;;;;4.53;3.85;;;22.10;72.70;;;;;;6201050;28;94198;-74
2023/01/26 07:59:42;;;;;;;4.45;3.60;;;22.10;72.80;;;;;;6196229;28;92841;-74
2023/01/26 08:02:44;;;;;;;3.88;3.40;;;22.10;72.90;;;;;;6201895;28;94033;-73
2023/01/26 08:05:49;;;;;;;3.90;3.50;;;22.10;72.90;;;;;;6201090;28;93006;-71
2023/01/26 08:08:52;;;;;;;3.92;3.50;;;22.10;72.90;;;;;;6200638;28;93854;-74
2023/01/26 08:11:58;;;;;;;5.03;3.67;;;22.10;72.90;;;;;;6178044;28;93134;-74
2023/01/26 08:15:00;;;;;;;3.55;3.25;;;22.10;73.00;;;;;;6182741;28;94043;-73
2023/01/26 08:18:03;;;;;;;3.67;3.38;;;22.10;73.00;;;;;;6194958;28;94315;-74
2023/01/26 08:21:07;;;;;;;3.40;3.10;;;22.10;73.00;;;;;;6190258;28;94309;-75
2023/01/26 08:24:12;;;;;;;3.50;3.08;;;22.10;73.00;;;;;;6181176;28;94599;-74
2023/01/26 08:27:15;;;;;;;3.90;3.55;;;22.10;73.00;;;;;;6190877;28;94409;-74
2023/01/26 08:30:18;;;;;;;3.85;3.47;;;22.10;73.00;;;;;;6200030;28;93343;-74
2023/01/26 08:33:20;;;;;;;3.58;3.28;;;22.10;73.00;;;;;;6189250;28;94444;-74
2023/01/26 08:36:23;;;;;;;3.80;3.30;;;22.20;73.10;;;;;;6205028;28;94253;-73
2023/01/26 08:39:26;;;;;;;3.45;3.05;;;22.20;73.10;;;;;;6204379;28;95160;-74
2023/01/26 08:42:30;;;;;;;4.05;3.47;;;22.10;73.00;;;;;;6205847;28;94070;-73
2023/01/26 08:45:32;;;;;;;3.80;3.28;;;22.20;73.00;;;;;;6203351;28;95283;-74
2023/01/26 08:48:35;;;;;;;3.45;2.90;;;22.20;73.00;;;;;;6205152;28;94357;-73
2023/01/26 08:51:38;;;;;;;3.25;2.90;;;22.20;73.00;;;;;;6204536;28;94272;-74
2023/01/26 08:54:41;;;;;;;3.53;3.22;;;22.20;73.00;;;;;;6204232;28;94150;-73
2023/01/26 08:57:44;;;;;;;3.40;3.10;;;22.20;73.00;;;;;;6205329;28;94200;-74
2023/01/26 09:00:46;;;;;;;3.47;3.17;;;22.20;73.00;;;;;;6204321;28;93449;-73
2023/01/26 09:03:50;;;;;;;3.95;3.33;;;22.20;73.20;;;;;;6204155;28;93273;-74
2023/01/26 09:06:53;;;;;;;3.55;2.97;;;22.20;73.20;;;;;;6203658;28;94121;-73
2023/01/26 09:09:56;;;;;;;3.08;2.78;;;22.20;73.10;;;;;;6200162;28;95648;-73
2023/01/26 09:13:00;;;;;;;3.70;2.75;;;22.20;73.00;;;;;;6203649;28;94267;-74
2023/01/26 09:16:06;;;;;;;3.00;2.70;;;22.20;73.00;;;;;;6203971;28;94192;-73
2023/01/26 09:19:09;;;;;;;3.20;2.90;;;22.20;73.00;;;;;;6202688;28;94264;-74
2023/01/26 09:22:12;;;;;;;3.45;3.08;;;22.20;73.00;;;;;;6204565;28;94260;-74
2023/01/26 09:25:15;;;;;;;4.15;2.90;;;22.20;73.00;;;;;;6200166;28;94061;-74
2023/01/26 09:28:17;;;;;;;2.97;2.78;;;22.20;72.90;;;;;;6192720;28;93412;-73
2023/01/26 09:31:19;;;;;;;3.85;3.08;;;22.30;73.00;;;;;;6197873;28;93333;-73
2023/01/26 09:34:24;;;;;;;3.20;2.90;;;22.30;72.90;;;;;;6203247;28;94599;-73
2023/01/26 09:37:27;;;;;;;3.05;2.75;;;22.30;72.90;;;;;;6198031;28;94222;-73
2023/01/26 09:40:40;;;;;;;3.30;3.00;;;22.30;72.90;;;;;;6197131;28;95094;-73
2023/01/26 09:43:45;;;;;;;3.80;3.00;;;22.20;72.80;;;;;;6187693;28;93921;-73
2023/01/26 09:47:00;;;;;;;2.70;2.50;;;22.30;72.80;;;;;;6189317;28;93965;-73
2023/01/26 09:50:08;;;;;;;2.83;2.63;;;22.30;72.80;;;;;;6190512;28;94126;-73
2023/01/26 09:53:18;;;;;;;3.08;2.70;;;22.30;72.80;;;;;;6181553;28;94090;-73
2023/01/26 09:56:27;;;;;;;2.85;2.65;;;22.30;72.80;;;;;;6187236;28;94150;-74
2023/01/26 09:59:34;;;;;;;3.30;2.60;;;22.30;72.80;;;;;;6194132;28;93158;-74
2023/01/26 10:02:50;;;;;;;3.80;2.75;;;22.30;72.80;;;;;;6195850;28;93404;-73
2023/01/26 10:05:57;;;;;;;3.60;2.80;;;22.30;72.70;;;;;;6199221;28;93363;-74
2023/01/26 10:09:04;;;;;;;4.70;2.70;;;22.30;72.80;;;;;;6199107;28;94101;-74
2023/01/26 10:12:15;;;;;;;9.05;7.18;;;22.30;72.80;;;;;;6201248;28;93821;-73
2023/01/26 10:15:29;;;;;;;25.65;18.25;;;22.30;72.80;;;;;;6191723;28;94846;-73
2023/01/26 10:18:37;;;;;;;19.08;15.52;;;22.30;72.80;;;;;;6190274;28;94123;-74
2023/01/26 10:21:44;;;;;;;12.32;9.95;;;22.30;72.80;;;;;;6188405;28;93531;-74
2023/01/26 10:24:51;;;;;;;11.77;10.00;;;22.30;72.80;;;;;;6194008;28;93845;-74
2023/01/26 10:27:54;;;;;;;11.88;9.07;;;22.40;74.80;;;;;;6201743;28;94039;-73
2023/01/26 10:30:57;;;;;;;10.38;8.45;;;22.70;73.90;;;;;;6188340;28;94072;-74
2023/01/26 10:34:02;;;;;;;10.93;8.85;;;23.00;72.80;;;;;;6197037;28;93392;-74
2023/01/26 10:37:20;;;;;;;11.50;8.30;;;23.30;71.80;;;;;;6198918;28;94070;-74
2023/01/26 10:40:24;;;;;;;10.70;7.88;;;23.40;71.20;;;;;;6202696;28;94168;-74
2023/01/26 10:43:27;;;;;;;9.85;7.30;;;23.40;70.60;;;;;;6201597;28;94940;-75
2023/01/26 10:46:34;;;;;;;8.30;7.22;;;23.40;70.60;;;;;;6200747;28;94098;-75
2023/01/26 10:49:36;;;;;;;8.25;7.05;;;23.40;70.40;;;;;;6200117;28;94146;-75
2023/01/26 10:52:38;;;;;;;8.82;6.95;;;23.30;70.40;;;;;;6202081;28;94188;-75
2023/01/26 10:55:42;;;;;;;7.93;6.68;;;23.30;70.60;;;;;;6199417;28;93858;-75
2023/01/26 10:58:47;;;;;;;7.80;6.45;;;23.20;71.60;;;;;;6201301;28;94174;-73
2023/01/26 11:01:54;;;;;;;8.07;6.75;;;23.20;70.90;;;;;;6203645;28;94050;-75
2023/01/26 11:05:13;;;;;;;8.63;6.50;;;23.10;71.00;;;;;;6203174;28;93372;-75
2023/01/26 11:08:32;;;;;;;8.70;5.97;;;23.10;71.10;;;;;;6200917;28;94017;-74
2023/01/26 11:11:36;;;;;;;6.60;5.85;;;23.00;71.10;;;;;;6200211;28;94414;-73
2023/01/26 11:14:38;;;;;;;6.90;5.85;;;23.00;71.30;;;;;;6202240;28;95133;-74
2023/01/26 11:17:46;;;;;;;6.97;5.80;;;23.00;71.30;;;;;;6201482;28;94103;-75
2023/01/26 11:20:52;;;;;;;7.15;5.30;;;22.90;71.30;;;;;;6202085;28;94195;-75
2023/01/26 11:24:03;;;;;;;6.35;5.63;;;22.90;71.40;;;;;;6199363;28;94236;-74
2023/01/26 11:27:31;;;;;;;7.93;5.72;;;22.80;71.30;;;;;;6192893;28;94146;-75
2023/01/26 11:30:55;;;;;;;7.10;5.30;;;22.80;71.40;;;;;;6201753;28;94378;-74
2023/01/26 11:34:10;;;;;;;7.22;5.18;;;22.80;71.50;;;;;;6201602;28;94096;-73
2023/01/26 11:37:36;;;;;;;6.20;5.03;;;22.80;71.50;;;;;;6202114;28;93453;-72
2023/01/26 11:40:45;;;;;;;6.03;4.78;;;22.80;71.50;;;;;;6198153;28;94121;-75
2023/01/26 11:44:12;;;;;;;5.50;4.57;;;22.80;71.60;;;;;;6194961;28;94099;-74
2023/01/26 11:47:35;;;;;;;6.32;4.65;;;22.70;71.50;;;;;;6198174;28;95233;-74
2023/01/26 11:50:42;;;;;;;6.28;4.53;;;22.70;71.60;;;;;;6188182;28;92964;-75
2023/01/26 11:54:14;;;;;;;6.05;4.43;;;22.70;71.60;;;;;;6186743;28;94054;-74
2023/01/26 11:57:26;;;;;;;5.10;4.18;;;22.70;71.60;;;;;;6201657;28;94686;-75
2023/01/26 12:00:39;;;;;;;5.78;4.32;;;22.70;71.60;;;;;;6189498;28;94218;-75
2023/01/26 12:03:46;;;;;;;5.32;4.50;;;22.70;71.60;;;;;;6201723;28;94104;-74
2023/01/26 12:06:54;;;;;;;6.35;4.43;;;22.70;71.60;;;;;;6199994;28;94191;-74
2023/01/26 12:09:56;;;;;;;5.75;4.13;;;22.70;71.70;;;;;;6205960;28;93680;-75
2023/01/26 12:13:05;;;;;;;6.28;4.10;;;22.70;71.70;;;;;;6205275;28;94501;-75
2023/01/26 12:16:17;;;;;;;4.60;4.00;;;22.70;71.70;;;;;;6204811;28;93987;-74
2023/01/26 12:19:36;;;;;;;5.30;4.03;;;22.60;71.60;;;;;;6196375;28;95306;-76
2023/01/26 12:22:41;;;;;;;5.43;4.10;;;22.70;71.70;;;;;;6195086;28;94093;-75
2023/01/26 12:25:49;;;;;;;5.15;4.07;;;22.60;71.70;;;;;;6200947;28;94154;-75
2023/01/26 12:29:04;;;;;;;4.28;3.70;;;22.70;71.80;;;;;;6205116;28;94153;-75
2023/01/26 12:32:12;;;;;;;4.50;3.85;;;22.60;71.70;;;;;;6205627;28;94129;-75
2023/01/26 12:35:19;;;;;;;4.35;3.83;;;22.60;71.70;;;;;;6204068;28;94079;-75
2023/01/26 12:38:30;;;;;;;5.28;3.90;;;22.60;71.70;;;;;;6194874;28;94151;-75
2023/01/26 12:41:41;;;;;;;4.47;3.55;;;22.60;71.70;;;;;;6205991;28;93350;-75
2023/01/26 12:44:46;;;;;;;6.22;3.72;;;22.60;71.70;;;;;;6204752;28;94105;-74
2023/01/26 12:47:53;;;;;;;3.90;3.40;;;22.70;71.80;;;;;;6205395;28;94067;-75
2023/01/26 12:51:00;;;;;;;4.15;3.60;;;22.70;71.80;;;;;;6191457;28;95136;-75
2023/01/26 12:54:11;;;;;;;4.13;3.40;;;22.60;71.70;;;;;;6205018;28;94000;-74
2023/01/26 12:57:17;;;;;;;4.30;3.67;;;22.60;71.70;;;;;;6204276;28;94097;-75
2023/01/26 13:00:22;;;;;;;3.63;3.15;;;22.60;71.80;;;;;;6205899;28;94474;-75
2023/01/26 13:03:30;;;;;;;3.72;3.10;;;22.60;71.80;;;;;;6205058;28;92898;-75
2023/01/26 13:06:32;;;;;;;3.47;3.17;;;22.60;71.80;;;;;;6203492;28;93074;-75
2023/01/26 13:09:34;;;;;;;3.80;3.40;;;22.60;71.70;;;;;;6202378;28;94300;-74
2023/01/26 13:12:47;;;;;;;4.07;3.20;;;22.60;71.80;;;;;;6205104;28;93498;-74
2023/01/26 13:16:27;;;;;;;4.05;3.63;;;22.60;71.80;;;;;;6203500;28;94096;-74
2023/01/26 13:19:52;;;;;;;3.25;2.95;;;22.60;71.70;;;;;;6199154;28;94087;-75
2023/01/26 13:22:55;;;;;;;4.03;3.10;;;22.60;71.80;;;;;;6203799;28;94318;-75
2023/01/26 13:26:17;;;;;;;3.38;2.92;;;22.60;71.70;;;;;;6204279;28;94892;-75
2023/01/26 13:29:34;;;;;;;3.45;3.15;;;22.60;71.70;;;;;;6204662;28;94008;-75
2023/01/26 13:33:08;;;;;;;3.70;2.90;;;22.60;71.80;;;;;;6195422;28;93144;-75
2023/01/26 13:36:16;;;;;;;3.40;2.85;;;22.60;71.70;;;;;;6193775;28;94312;-74
2023/01/26 13:39:27;;;;;;;2.95;2.65;;;22.60;71.70;;;;;;6192114;28;94223;-75
2023/01/26 13:42:37;;;;;;;3.00;2.70;;;22.60;71.80;;;;;;6193459;28;94128;-74
2023/01/26 13:45:48;;;;;;;2.92;2.63;;;22.60;71.80;;;;;;6204854;28;93730;-75
2023/01/26 13:48:51;;;;;;;3.33;2.88;;;22.60;71.80;;;;;;6204156;28;94183;-75
2023/01/26 13:51:54;;;;;;;2.70;2.50;;;22.60;71.80;;;;;;6192341;28;94286;-75
2023/01/26 13:54:57;;;;;;;3.03;2.72;;;22.60;71.80;;;;;;6191054;28;95395;-74
2023/01/26 13:58:12;;;;;;;3.17;2.65;;;22.50;71.80;;;;;;6203393;28;94313;-75
2023/01/26 14:01:16;;;;;;;3.65;2.80;;;22.50;71.80;;;;;;6201591;28;94402;-74
2023/01/26 14:04:20;;;;;;;2.65;2.45;;;22.50;71.90;;;;;;6201900;28;94323;-76
2023/01/26 14:07:26;;;;;;;2.72;2.53;;;22.50;72.00;;;;;;6201254;28;94154;-75
2023/01/26 14:10:28;;;;;;;3.38;2.75;;;22.50;72.00;;;;;;6204304;28;94117;-74
2023/01/26 14:13:33;;;;;;;2.42;2.22;;;22.40;72.00;;;;;;6203694;28;94726;-75
2023/01/26 14:16:37;;;;;;;3.13;2.72;;;22.40;72.00;;;;;;6203949;28;93371;-74
2023/01/26 14:19:41;;;;;;;3.20;2.70;;;22.40;72.00;;;;;;6204205;28;94545;-74
2023/01/26 14:22:47;;;;;;;2.40;2.20;;;22.40;72.00;;;;;;6202896;28;94278;-75
2023/01/26 14:25:58;;;;;;;3.03;2.63;;;22.40;72.00;;;;;;6203466;28;95351;-74
2023/01/26 14:29:02;;;;;;;2.78;2.28;;;22.40;72.00;;;;;;6203906;28;94132;-74
2023/01/26 14:32:04;;;;;;;2.63;2.40;;;22.40;72.00;;;;;;6201882;28;94462;-75
2023/01/26 14:35:22;;;;;;;3.30;2.50;;;22.40;72.10;;;;;;6189054;28;94107;-75
2023/01/26 14:38:27;;;;;;;2.67;2.30;;;22.40;72.10;;;;;;6202640;28;94118;-74
2023/01/26 14:41:32;;;;;;;2.78;2.45;;;22.40;72.10;;;;;;6200766;28;94026;-75
2023/01/26 14:44:35;;;;;;;2.90;2.35;;;22.40;72.00;;;;;;6201153;28;94096;-75
2023/01/26 14:47:37;;;;;;;2.42;2.22;;;22.40;72.00;;;;;;6202255;28;93717;-76
2023/01/26 14:50:40;;;;;;;2.47;2.28;;;22.40;72.00;;;;;;6202925;28;94395;-75
2023/01/26 14:53:49;;;;;;;2.50;2.30;;;22.40;72.00;;;;;;6201983;28;94147;-75
2023/01/26 14:56:51;;;;;;;3.88;2.38;;;22.40;72.00;;;;;;6201951;28;95056;-75
2023/01/26 14:59:56;;;;;;;2.67;2.40;;;22.50;72.00;;;;;;6202302;28;94177;-75
2023/01/26 15:03:00;;;;;;;2.42;2.20;;;22.50;72.00;;;;;;6191436;28;94373;-75
2023/01/26 15:06:16;;;;;;;2.40;2.20;;;22.40;71.80;;;;;;6191357;28;94491;-76
2023/01/26 15:09:26;;;;;;;3.10;2.28;;;22.50;71.90;;;;;;6197271;28;92952;-76
2023/01/26 15:12:32;;;;;;;2.60;2.30;;;22.50;71.90;;;;;;6201953;28;94168;-76
2023/01/26 15:15:37;;;;;;;3.30;2.40;;;22.50;71.80;;;;;;6202861;28;94231;-73
2023/01/26 15:18:39;;;;;;;2.30;2.10;;;22.50;71.80;;;;;;6202176;28;93417;-75
2023/01/26 15:21:43;;;;;;;2.40;2.20;;;22.50;71.80;;;;;;6201002;28;93080;-75
2023/01/26 15:24:47;;;;;;;2.30;2.10;;;22.50;71.80;;;;;;6201749;28;94221;-76
2023/01/26 15:27:52;;;;;;;2.42;2.13;;;22.50;71.80;;;;;;6201879;28;95330;-76
2023/01/26 15:30:56;;;;;;;2.65;2.30;;;22.50;71.80;;;;;;6201336;28;94202;-75
2023/01/26 15:34:00;;;;;;;2.85;2.13;;;22.50;71.80;;;;;;6187437;28;94053;-76
2023/01/26 15:37:03;;;;;;;2.42;2.22;;;22.50;71.70;;;;;;6202237;28;94515;-75
2023/01/26 15:40:08;;;;;;;2.40;2.20;;;22.50;71.80;;;;;;6196509;28;94213;-76
2023/01/26 15:43:14;;;;;;;3.08;2.45;;;22.50;71.80;;;;;;6197967;28;94117;-76
2023/01/26 15:46:16;;;;;;;2.60;2.20;;;22.50;71.80;;;;;;6195981;28;94455;-76
2023/01/26 15:49:21;;;;;;;2.38;2.05;;;22.60;71.80;;;;;;6196515;28;93487;-76
2023/01/26 15:52:29;;;;;;;2.47;2.20;;;22.60;71.80;;;;;;6200994;28;94396;-75
2023/01/26 15:55:33;;;;;;;2.67;2.10;;;22.50;71.70;;;;;;6201437;28;94187;-76
2023/01/26 15:58:35;;;;;;;2.42;2.10;;;22.60;71.80;;;;;;6205589;28;95023;-74
2023/01/26 16:01:37;;;;;;;2.30;2.10;;;22.60;71.80;;;;;;6204574;28;94167;-75
2023/01/26 16:04:39;;;;;;;2.17;1.98;;;22.50;71.70;;;;;;6205884;28;94103;-75
2023/01/26 16:07:41;;;;;;;2.28;2.08;;;22.50;71.70;;;;;;6193941;28;94063;-75
2023/01/26 16:10:46;;;;;;;2.47;2.28;;;22.60;71.80;;;;;;6205520;28;94214;-75
2023/01/26 16:13:48;;;;;;;2.30;2.10;;;22.50;71.70;;;;;;6207254;28;94286;-74
2023/01/26 16:16:50;;;;;;;2.40;2.20;;;22.60;71.80;;;;;;6182605;28;94133;-75
2023/01/26 16:19:52;;;;;;;2.17;1.98;;;22.60;71.80;;;;;;6204994;28;93449;-76
2023/01/26 16:22:54;;;;;;;2.58;2.38;;;22.60;71.80;;;;;;6205818;28;94707;-75
2023/01/26 16:25:57;;;;;;;2.30;2.10;;;22.60;72.70;;;;;;6206063;28;94481;-72
2023/01/26 16:29:00;;;;;;;2.45;2.10;;;22.60;71.70;;;;;;6191569;28;95064;-75
2023/01/26 16:32:07;;;;;;;2.30;2.10;;;22.60;71.70;;;;;;6203846;28;94057;-75
2023/01/26 16:35:13;;;;;;;2.30;2.10;;;22.60;71.70;;;;;;6205279;28;94151;-75
2023/01/26 16:38:15;;;;;;;2.20;2.00;;;22.60;71.70;;;;;;6204622;28;94106;-75
2023/01/26 16:41:23;;;;;;;2.30;2.10;;;22.60;71.70;;;;;;6204529;28;94194;-75
2023/01/26 16:44:25;;;;;;;2.03;1.90;;;22.60;71.70;;;;;;6204594;28;94237;-75
2023/01/26 16:47:27;;;;;;;2.22;2.03;;;22.60;71.70;;;;;;6190114;28;94105;-75
2023/01/26 16:50:29;;;;;;;2.20;2.00;;;22.60;71.70;;;;;;6189792;28;92375;-76
2023/01/26 16:53:33;;;;;;;2.25;2.05;;;22.60;71.70;;;;;;6203222;28;94171;-76